sensor_id;sensor_type;location;lat;lon;timestamp;P1;durP1;ratioP1;P2;durP2;ratioP2
21663;SDS011;10993;52.510;13.456;2023-04-24T00:03:29;7.30;;;2.95;;
21663;SDS011;10993;52.510;13.456;2023-04-24T00:08:30;5.45;;;2.90;;
21663;SDS011;10993;52.510;13.456;2023-04-24T00:13:32;5.20;;;3.08;;
21663;SDS011;10993;52.510;13.456;2023-04-24T00:18:32;5.10;;;3.03;;
21663;SDS011;10993;52.510;13.456;2023-04-24T00:23:32;5.22;;;2.58;;
21663;SDS011;10993;52.510;13.456;2023-04-24T00:28:34;5.03;;;3.25;;
21663;SDS011;10993;52.510;13.456;2023-04-24T00:33:35;4.93;;;2.53;;
21663;SDS011;10993;52.510;13.456;2023-04-24T00:38:35;5.88;;;3.35;;
21663;SDS011;10993;52.510;13.456;2023-04-24T00:43:37;5.63;;;2.97;;
21663;SDS011;10993;52.510;13.456;2023-04-24T00:48:38;5.53;;;3.00;;
21663;SDS011;10993;52.510;13.456;2023-04-24T00:53:39;4.63;;;2.90;;
21663;SDS011;10993;52.510;13.456;2023-04-24T00:58:41;5.10;;;3.08;;
21663;SDS011;10993;52.510;13.456;2023-04-24T01:03:42;5.38;;;3.17;;
21663;SDS011;10993;52.510;13.456;2023-04-24T01:08:43;6.00;;;3.58;;
21663;SDS011;10993;52.510;13.456;2023-04-24T01:13:48;5.28;;;2.85;;
21663;SDS011;10993;52.510;13.456;2023-04-24T01:18:48;4.68;;;3.03;;
21663;SDS011;10993;52.510;13.456;2023-04-24T01:23:50;7.05;;;3.58;;
21663;SDS011;10993;52.510;13.456;2023-04-24T01:28:51;5.68;;;3.35;;
21663;SDS011;10993;52.510;13.456;2023-04-24T01:33:52;5.07;;;3.30;;
21663;SDS011;10993;52.510;13.456;2023-04-24T01:38:55;5.32;;;3.08;;
21663;SDS011;10993;52.510;13.456;2023-04-24T01:43:55;5.90;;;3.58;;
21663;SDS011;10993;52.510;13.456;2023-04-24T01:48:57;6.25;;;3.35;;
21663;SDS011;10993;52.510;13.456;2023-04-24T01:54:01;6.28;;;3.55;;
21663;SDS011;10993;52.510;13.456;2023-04-24T01:59:02;7.10;;;3.55;;
21663;SDS011;10993;52.510;13.456;2023-04-24T02:04:03;8.20;;;3.78;;
21663;SDS011;10993;52.510;13.456;2023-04-24T02:09:06;5.40;;;3.40;;
21663;SDS011;10993;52.510;13.456;2023-04-24T02:14:06;6.53;;;3.75;;
21663;SDS011;10993;52.510;13.456;2023-04-24T02:19:07;8.35;;;3.75;;
21663;SDS011;10993;52.510;13.456;2023-04-24T02:24:09;5.65;;;3.53;;
21663;SDS011;10993;52.510;13.456;2023-04-24T02:29:09;6.00;;;3.80;;
21663;SDS011;10993;52.510;13.456;2023-04-24T02:34:09;7.20;;;4.25;;
21663;SDS011;10993;52.510;13.456;2023-04-24T02:39:11;5.80;;;3.55;;
21663;SDS011;10993;52.510;13.456;2023-04-24T02:44:13;6.95;;;4.05;;
21663;SDS011;10993;52.510;13.456;2023-04-24T02:49:13;7.07;;;3.42;;
21663;SDS011;10993;52.510;13.456;2023-04-24T02:54:15;6.75;;;3.75;;
21663;SDS011;10993;52.510;13.456;2023-04-24T02:59:15;5.28;;;3.53;;
21663;SDS011;10993;52.510;13.456;2023-04-24T03:04:16;6.95;;;4.25;;
21663;SDS011;10993;52.510;13.456;2023-04-24T03:09:21;6.85;;;3.88;;
21663;SDS011;10993;52.510;13.456;2023-04-24T03:14:21;6.43;;;4.25;;
21663;SDS011;10993;52.510;13.456;2023-04-24T03:19:22;8.65;;;4.63;;
21663;SDS011;10993;52.510;13.456;2023-04-24T03:24:24;9.80;;;5.28;;
21663;SDS011;10993;52.510;13.456;2023-04-24T03:29:24;11.13;;;5.30;;
21663;SDS011;10993;52.510;13.456;2023-04-24T03:34:25;9.85;;;5.35;;
21663;SDS011;10993;52.510;13.456;2023-04-24T03:39:26;10.93;;;5.50;;
21663;SDS011;10993;52.510;13.456;2023-04-24T03:44:27;9.63;;;4.32;;
21663;SDS011;10993;52.510;13.456;2023-04-24T03:49:27;7.88;;;4.00;;
21663;SDS011;10993;52.510;13.456;2023-04-24T03:54:29;7.82;;;4.20;;
21663;SDS011;10993;52.510;13.456;2023-04-24T03:59:30;5.90;;;3.80;;
21663;SDS011;10993;52.510;13.456;2023-04-24T04:04:30;6.03;;;3.45;;
21663;SDS011;10993;52.510;13.456;2023-04-24T04:09:32;5.10;;;3.50;;
21663;SDS011;10993;52.510;13.456;2023-04-24T04:14:33;7.13;;;3.63;;
21663;SDS011;10993;52.510;13.456;2023-04-24T04:19:33;5.25;;;3.30;;
21663;SDS011;10993;52.510;13.456;2023-04-24T04:24:35;6.15;;;3.95;;
21663;SDS011;10993;52.510;13.456;2023-04-24T04:29:37;5.45;;;3.10;;
21663;SDS011;10993;52.510;13.456;2023-04-24T04:34:38;6.15;;;3.92;;
21663;SDS011;10993;52.510;13.456;2023-04-24T04:39:41;6.25;;;3.70;;
21663;SDS011;10993;52.510;13.456;2023-04-24T04:44:41;4.78;;;3.33;;
21663;SDS011;10993;52.510;13.456;2023-04-24T04:49:41;6.05;;;3.42;;
21663;SDS011;10993;52.510;13.456;2023-04-24T04:54:44;5.65;;;3.67;;
21663;SDS011;10993;52.510;13.456;2023-04-24T04:59:44;6.45;;;3.60;;
21663;SDS011;10993;52.510;13.456;2023-04-24T05:04:45;12.38;;;6.97;;
21663;SDS011;10993;52.510;13.456;2023-04-24T05:09:47;5.80;;;3.58;;
21663;SDS011;10993;52.510;13.456;2023-04-24T05:14:47;6.47;;;3.42;;
21663;SDS011;10993;52.510;13.456;2023-04-24T05:19:48;6.20;;;3.42;;
21663;SDS011;10993;52.510;13.456;2023-04-24T05:24:49;5.13;;;3.10;;
21663;SDS011;10993;52.510;13.456;2023-04-24T05:29:50;4.72;;;2.92;;
21663;SDS011;10993;52.510;13.456;2023-04-24T05:34:51;4.43;;;2.63;;
21663;SDS011;10993;52.510;13.456;2023-04-24T05:39:52;5.13;;;2.57;;
21663;SDS011;10993;52.510;13.456;2023-04-24T05:44:53;3.70;;;1.60;;
21663;SDS011;10993;52.510;13.456;2023-04-24T05:49:54;4.07;;;1.80;;
21663;SDS011;10993;52.510;13.456;2023-04-24T05:54:56;2.38;;;1.40;;
21663;SDS011;10993;52.510;13.456;2023-04-24T05:59:56;5.47;;;1.52;;
21663;SDS011;10993;52.510;13.456;2023-04-24T06:04:57;2.17;;;1.00;;
21663;SDS011;10993;52.510;13.456;2023-04-24T06:10:00;3.03;;;1.70;;
21663;SDS011;10993;52.510;13.456;2023-04-24T06:15:00;2.22;;;1.17;;
21663;SDS011;10993;52.510;13.456;2023-04-24T06:20:01;2.38;;;1.00;;
21663;SDS011;10993;52.510;13.456;2023-04-24T06:25:05;1.77;;;0.75;;
21663;SDS011;10993;52.510;13.456;2023-04-24T06:30:07;1.20;;;0.73;;
21663;SDS011;10993;52.510;13.456;2023-04-24T06:35:09;1.42;;;0.80;;
21663;SDS011;10993;52.510;13.456;2023-04-24T06:40:11;2.08;;;1.02;;
21663;SDS011;10993;52.510;13.456;2023-04-24T06:45:11;2.70;;;0.88;;
21663;SDS011;10993;52.510;13.456;2023-04-24T06:50:11;2.90;;;0.90;;
21663;SDS011;10993;52.510;13.456;2023-04-24T06:55:13;1.52;;;0.80;;
21663;SDS011;10993;52.510;13.456;2023-04-24T07:00:16;1.73;;;0.80;;
21663;SDS011;10993;52.510;13.456;2023-04-24T07:05:16;1.65;;;0.57;;
21663;SDS011;10993;52.510;13.456;2023-04-24T07:10:21;1.40;;;0.75;;
21663;SDS011;10993;52.510;13.456;2023-04-24T07:15:21;3.80;;;0.52;;
21663;SDS011;10993;52.510;13.456;2023-04-24T07:20:22;1.42;;;0.70;;
21663;SDS011;10993;52.510;13.456;2023-04-24T07:25:23;0.85;;;0.40;;
21663;SDS011;10993;52.510;13.456;2023-04-24T07:30:24;1.85;;;0.50;;
21663;SDS011;10993;52.510;13.456;2023-04-24T07:35:24;2.05;;;0.60;;
21663;SDS011;10993;52.510;13.456;2023-04-24T07:40:26;1.20;;;0.50;;
21663;SDS011;10993;52.510;13.456;2023-04-24T07:45:27;2.47;;;0.47;;
21663;SDS011;10993;52.510;13.456;2023-04-24T07:50:28;1.48;;;0.50;;
21663;SDS011;10993;52.510;13.456;2023-04-24T07:55:32;2.80;;;1.17;;
21663;SDS011;10993;52.510;13.456;2023-04-24T08:00:32;3.25;;;0.60;;
21663;SDS011;10993;52.510;13.456;2023-04-24T08:05:33;0.27;;;0.20;;
21663;SDS011;10993;52.510;13.456;2023-04-24T08:10:35;1.25;;;0.32;;
21663;SDS011;10993;52.510;13.456;2023-04-24T08:15:35;1.20;;;0.50;;
21663;SDS011;10993;52.510;13.456;2023-04-24T08:20:35;0.98;;;0.40;;
21663;SDS011;10993;52.510;13.456;2023-04-24T08:25:37;1.67;;;0.40;;
21663;SDS011;10993;52.510;13.456;2023-04-24T08:30:38;0.47;;;0.20;;
21663;SDS011;10993;52.510;13.456;2023-04-24T08:35:38;0.93;;;0.45;;
21663;SDS011;10993;52.510;13.456;2023-04-24T08:40:40;4.15;;;1.90;;
21663;SDS011;10993;52.510;13.456;2023-04-24T08:45:41;4.22;;;1.92;;
21663;SDS011;10993;52.510;13.456;2023-04-24T08:50:42;4.05;;;1.10;;
21663;SDS011;10993;52.510;13.456;2023-04-24T08:55:46;1.98;;;0.50;;
21663;SDS011;10993;52.510;13.456;2023-04-24T09:00:48;1.77;;;0.75;;
21663;SDS011;10993;52.510;13.456;2023-04-24T09:05:48;1.58;;;0.55;;
21663;SDS011;10993;52.510;13.456;2023-04-24T09:10:51;1.98;;;0.57;;
21663;SDS011;10993;52.510;13.456;2023-04-24T09:15:52;2.55;;;1.20;;
21663;SDS011;10993;52.510;13.456;2023-04-24T09:20:59;1.42;;;0.68;;
21663;SDS011;10993;52.510;13.456;2023-04-24T09:26:03;2.35;;;1.10;;
21663;SDS011;10993;52.510;13.456;2023-04-24T09:31:07;1.45;;;0.65;;
21663;SDS011;10993;52.510;13.456;2023-04-24T09:36:09;3.30;;;1.20;;
21663;SDS011;10993;52.510;13.456;2023-04-24T09:41:13;0.77;;;0.40;;
21663;SDS011;10993;52.510;13.456;2023-04-24T09:46:13;2.13;;;0.82;;
21663;SDS011;10993;52.510;13.456;2023-04-24T09:51:14;3.05;;;1.17;;
21663;SDS011;10993;52.510;13.456;2023-04-24T09:56:17;1.13;;;0.70;;
21663;SDS011;10993;52.510;13.456;2023-04-24T10:01:28;2.95;;;1.45;;
21663;SDS011;10993;52.510;13.456;2023-04-24T10:06:31;2.45;;;0.95;;
21663;SDS011;10993;52.510;13.456;2023-04-24T10:11:34;0.30;;;0.30;;
21663;SDS011;10993;52.510;13.456;2023-04-24T10:16:35;1.20;;;0.50;;
21663;SDS011;10993;52.510;13.456;2023-04-24T10:21:35;2.03;;;0.60;;
21663;SDS011;10993;52.510;13.456;2023-04-24T10:26:44;1.40;;;0.60;;
21663;SDS011;10993;52.510;13.456;2023-04-24T10:31:45;1.45;;;0.70;;
21663;SDS011;10993;52.510;13.456;2023-04-24T10:36:48;1.58;;;0.30;;
21663;SDS011;10993;52.510;13.456;2023-04-24T10:41:52;2.67;;;0.40;;
21663;SDS011;10993;52.510;13.456;2023-04-24T10:46:54;1.95;;;0.82;;
21663;SDS011;10993;52.510;13.456;2023-04-24T10:51:59;1.45;;;0.50;;
21663;SDS011;10993;52.510;13.456;2023-04-24T11:02:35;1.67;;;0.70;;
21663;SDS011;10993;52.510;13.456;2023-04-24T11:13:15;0.85;;;0.50;;
21663;SDS011;10993;52.510;13.456;2023-04-24T11:18:16;1.80;;;0.40;;
21663;SDS011;10993;52.510;13.456;2023-04-24T11:23:16;2.42;;;0.73;;
21663;SDS011;10993;52.510;13.456;2023-04-24T11:28:19;2.25;;;0.88;;
21663;SDS011;10993;52.510;13.456;2023-04-24T11:33:19;1.77;;;0.80;;
21663;SDS011;10993;52.510;13.456;2023-04-24T11:38:21;0.68;;;0.50;;
21663;SDS011;10993;52.510;13.456;2023-04-24T11:43:22;2.08;;;0.60;;
21663;SDS011;10993;52.510;13.456;2023-04-24T11:48:23;1.73;;;0.80;;
21663;SDS011;10993;52.510;13.456;2023-04-24T11:53:24;1.40;;;0.80;;
21663;SDS011;10993;52.510;13.456;2023-04-24T11:58:25;1.77;;;0.80;;
21663;SDS011;10993;52.510;13.456;2023-04-24T12:03:27;1.58;;;0.68;;
21663;SDS011;10993;52.510;13.456;2023-04-24T12:08:27;2.15;;;0.90;;
21663;SDS011;10993;52.510;13.456;2023-04-24T12:13:30;1.58;;;0.60;;
21663;SDS011;10993;52.510;13.456;2023-04-24T12:18:31;1.27;;;0.60;;
21663;SDS011;10993;52.510;13.456;2023-04-24T12:23:34;0.82;;;0.55;;
21663;SDS011;10993;52.510;13.456;2023-04-24T12:28:37;1.17;;;0.70;;
21663;SDS011;10993;52.510;13.456;2023-04-24T12:33:38;1.00;;;0.60;;
21663;SDS011;10993;52.510;13.456;2023-04-24T12:38:39;1.17;;;0.52;;
21663;SDS011;10993;52.510;13.456;2023-04-24T12:43:52;2.55;;;0.85;;
21663;SDS011;10993;52.510;13.456;2023-04-24T12:48:53;2.00;;;0.93;;
21663;SDS011;10993;52.510;13.456;2023-04-24T12:53:53;1.10;;;0.57;;
21663;SDS011;10993;52.510;13.456;2023-04-24T12:58:55;1.40;;;0.30;;
21663;SDS011;10993;52.510;13.456;2023-04-24T13:03:55;0.68;;;0.30;;
21663;SDS011;10993;52.510;13.456;2023-04-24T13:08:56;1.13;;;0.52;;
21663;SDS011;10993;52.510;13.456;2023-04-24T13:13:59;0.98;;;0.40;;
21663;SDS011;10993;52.510;13.456;2023-04-24T13:18:59;2.70;;;0.88;;
21663;SDS011;10993;52.510;13.456;2023-04-24T13:24:00;1.60;;;0.40;;
21663;SDS011;10993;52.510;13.456;2023-04-24T13:29:01;2.35;;;1.17;;
21663;SDS011;10993;52.510;13.456;2023-04-24T13:34:03;0.60;;;0.28;;
21663;SDS011;10993;52.510;13.456;2023-04-24T13:39:03;0.80;;;0.35;;
21663;SDS011;10993;52.510;13.456;2023-04-24T13:44:06;1.83;;;0.57;;
21663;SDS011;10993;52.510;13.456;2023-04-24T13:49:07;1.75;;;0.77;;
21663;SDS011;10993;52.510;13.456;2023-04-24T13:54:08;1.27;;;0.60;;
21663;SDS011;10993;52.510;13.456;2023-04-24T13:59:11;5.00;;;2.00;;
21663;SDS011;10993;52.510;13.456;2023-04-24T14:04:12;1.50;;;0.47;;
21663;SDS011;10993;52.510;13.456;2023-04-24T14:09:12;1.05;;;0.60;;
21663;SDS011;10993;52.510;13.456;2023-04-24T14:14:14;0.60;;;0.40;;
21663;SDS011;10993;52.510;13.456;2023-04-24T14:19:15;1.25;;;0.52;;
21663;SDS011;10993;52.510;13.456;2023-04-24T14:24:15;1.30;;;0.52;;
21663;SDS011;10993;52.510;13.456;2023-04-24T14:29:17;2.40;;;0.82;;
21663;SDS011;10993;52.510;13.456;2023-04-24T14:34:17;1.20;;;0.60;;
21663;SDS011;10993;52.510;13.456;2023-04-24T14:39:17;2.70;;;0.95;;
21663;SDS011;10993;52.510;13.456;2023-04-24T14:44:19;1.17;;;0.60;;
21663;SDS011;10993;52.510;13.456;2023-04-24T14:49:20;2.42;;;0.80;;
21663;SDS011;10993;52.510;13.456;2023-04-24T14:54:20;1.20;;;0.50;;
21663;SDS011;10993;52.510;13.456;2023-04-24T14:59:24;1.80;;;1.00;;
21663;SDS011;10993;52.510;13.456;2023-04-24T15:04:25;1.23;;;0.70;;
21663;SDS011;10993;52.510;13.456;2023-04-24T15:09:25;1.38;;;0.70;;
21663;SDS011;10993;52.510;13.456;2023-04-24T15:14:28;1.98;;;0.85;;
21663;SDS011;10993;52.510;13.456;2023-04-24T15:19:29;1.80;;;0.90;;
21663;SDS011;10993;52.510;13.456;2023-04-24T15:24:29;4.07;;;1.95;;
21663;SDS011;10993;52.510;13.456;2023-04-24T15:29:31;5.22;;;2.35;;
21663;SDS011;10993;52.510;13.456;2023-04-24T15:34:32;2.45;;;1.15;;
21663;SDS011;10993;52.510;13.456;2023-04-24T15:39:32;3.13;;;1.13;;
21663;SDS011;10993;52.510;13.456;2023-04-24T15:44:34;2.72;;;1.00;;
21663;SDS011;10993;52.510;13.456;2023-04-24T15:49:34;1.90;;;0.80;;
21663;SDS011;10993;52.510;13.456;2023-04-24T15:54:35;2.05;;;0.95;;
21663;SDS011;10993;52.510;13.456;2023-04-24T15:59:36;1.25;;;0.70;;
21663;SDS011;10993;52.510;13.456;2023-04-24T16:04:37;1.30;;;0.70;;
21663;SDS011;10993;52.510;13.456;2023-04-24T16:09:37;2.83;;;1.15;;
21663;SDS011;10993;52.510;13.456;2023-04-24T16:14:39;3.58;;;1.33;;
21663;SDS011;10993;52.510;13.456;2023-04-24T16:19:42;1.75;;;0.93;;
21663;SDS011;10993;52.510;13.456;2023-04-24T16:24:42;1.33;;;0.65;;
21663;SDS011;10993;52.510;13.456;2023-04-24T16:29:44;1.92;;;0.77;;
21663;SDS011;10993;52.510;13.456;2023-04-24T16:34:45;3.10;;;1.55;;
21663;SDS011;10993;52.510;13.456;2023-04-24T16:39:45;2.25;;;1.00;;
21663;SDS011;10993;52.510;13.456;2023-04-24T16:44:47;4.05;;;1.00;;
21663;SDS011;10993;52.510;13.456;2023-04-24T16:49:47;1.63;;;0.80;;
21663;SDS011;10993;52.510;13.456;2023-04-24T16:54:48;2.67;;;1.15;;
21663;SDS011;10993;52.510;13.456;2023-04-24T16:59:50;1.98;;;0.75;;
21663;SDS011;10993;52.510;13.456;2023-04-24T17:04:50;0.95;;;0.52;;
21663;SDS011;10993;52.510;13.456;2023-04-24T17:09:52;2.63;;;0.50;;
21663;SDS011;10993;52.510;13.456;2023-04-24T17:14:54;1.55;;;0.60;;
21663;SDS011;10993;52.510;13.456;2023-04-24T17:19:55;4.50;;;1.67;;
21663;SDS011;10993;52.510;13.456;2023-04-24T17:24:55;2.42;;;0.73;;
21663;SDS011;10993;52.510;13.456;2023-04-24T17:29:57;3.47;;;1.13;;
21663;SDS011;10993;52.510;13.456;2023-04-24T17:34:58;2.70;;;1.30;;
21663;SDS011;10993;52.510;13.456;2023-04-24T17:39:58;2.83;;;1.10;;
21663;SDS011;10993;52.510;13.456;2023-04-24T17:45:00;2.42;;;1.00;;
21663;SDS011;10993;52.510;13.456;2023-04-24T17:50:00;2.70;;;1.20;;
21663;SDS011;10993;52.510;13.456;2023-04-24T17:55:01;3.55;;;0.77;;
21663;SDS011;10993;52.510;13.456;2023-04-24T18:00:03;1.52;;;0.95;;
21663;SDS011;10993;52.510;13.456;2023-04-24T18:05:04;5.15;;;1.92;;
21663;SDS011;10993;52.510;13.456;2023-04-24T18:10:05;1.10;;;0.70;;
21663;SDS011;10993;52.510;13.456;2023-04-24T18:15:08;2.88;;;1.20;;
21663;SDS011;10993;52.510;13.456;2023-04-24T18:20:10;4.55;;;1.33;;
21663;SDS011;10993;52.510;13.456;2023-04-24T18:25:12;2.15;;;1.05;;
21663;SDS011;10993;52.510;13.456;2023-04-24T18:30:14;1.60;;;0.77;;
21663;SDS011;10993;52.510;13.456;2023-04-24T18:35:14;1.77;;;1.02;;
21663;SDS011;10993;52.510;13.456;2023-04-24T18:40:15;1.08;;;0.68;;
21663;SDS011;10993;52.510;13.456;2023-04-24T18:45:17;1.60;;;0.85;;
21663;SDS011;10993;52.510;13.456;2023-04-24T18:50:18;4.10;;;1.70;;
21663;SDS011;10993;52.510;13.456;2023-04-24T18:55:18;1.55;;;0.70;;
21663;SDS011;10993;52.510;13.456;2023-04-24T19:00:20;1.42;;;0.65;;
21663;SDS011;10993;52.510;13.456;2023-04-24T19:05:21;2.67;;;1.02;;
21663;SDS011;10993;52.510;13.456;2023-04-24T19:10:21;2.67;;;0.60;;
21663;SDS011;10993;52.510;13.456;2023-04-24T19:15:23;1.13;;;0.55;;
21663;SDS011;10993;52.510;13.456;2023-04-24T19:20:24;0.82;;;0.50;;
21663;SDS011;10993;52.510;13.456;2023-04-24T19:25:24;1.67;;;0.50;;
21663;SDS011;10993;52.510;13.456;2023-04-24T19:30:26;2.85;;;0.82;;
21663;SDS011;10993;52.510;13.456;2023-04-24T19:35:26;1.52;;;0.70;;
21663;SDS011;10993;52.510;13.456;2023-04-24T19:40:27;2.00;;;0.70;;
21663;SDS011;10993;52.510;13.456;2023-04-24T19:45:29;1.00;;;0.45;;
21663;SDS011;10993;52.510;13.456;2023-04-24T19:50:29;1.23;;;0.70;;
21663;SDS011;10993;52.510;13.456;2023-04-24T19:55:30;2.10;;;1.02;;
21663;SDS011;10993;52.510;13.456;2023-04-24T20:00:32;1.15;;;0.57;;
21663;SDS011;10993;52.510;13.456;2023-04-24T20:05:34;2.25;;;1.00;;
21663;SDS011;10993;52.510;13.456;2023-04-24T20:10:34;1.45;;;0.80;;
21663;SDS011;10993;52.510;13.456;2023-04-24T20:15:36;1.83;;;0.90;;
21663;SDS011;10993;52.510;13.456;2023-04-24T20:20:37;2.63;;;0.98;;
21663;SDS011;10993;52.510;13.456;2023-04-24T20:25:37;4.47;;;1.40;;
21663;SDS011;10993;52.510;13.456;2023-04-24T20:30:39;3.97;;;1.30;;
21663;SDS011;10993;52.510;13.456;2023-04-24T20:35:40;3.72;;;1.23;;
21663;SDS011;10993;52.510;13.456;2023-04-24T20:40:40;2.70;;;1.40;;
21663;SDS011;10993;52.510;13.456;2023-04-24T20:45:42;4.15;;;1.40;;
21663;SDS011;10993;52.510;13.456;2023-04-24T20:50:43;3.88;;;1.60;;
21663;SDS011;10993;52.510;13.456;2023-04-24T20:55:43;2.63;;;1.48;;
21663;SDS011;10993;52.510;13.456;2023-04-24T21:00:45;3.88;;;1.80;;
21663;SDS011;10993;52.510;13.456;2023-04-24T21:05:46;4.15;;;2.08;;
21663;SDS011;10993;52.510;13.456;2023-04-24T21:10:46;2.97;;;1.40;;
21663;SDS011;10993;52.510;13.456;2023-04-24T21:15:48;4.10;;;2.13;;
21663;SDS011;10993;52.510;13.456;2023-04-24T21:20:48;4.28;;;1.65;;
21663;SDS011;10993;52.510;13.456;2023-04-24T21:25:50;6.47;;;1.80;;
21663;SDS011;10993;52.510;13.456;2023-04-24T21:30:52;3.63;;;1.75;;
21663;SDS011;10993;52.510;13.456;2023-04-24T21:35:52;3.00;;;1.77;;
21663;SDS011;10993;52.510;13.456;2023-04-24T21:40:53;3.55;;;2.10;;
21663;SDS011;10993;52.510;13.456;2023-04-24T21:45:55;4.60;;;2.10;;
21663;SDS011;10993;52.510;13.456;2023-04-24T21:50:55;5.05;;;2.28;;
21663;SDS011;10993;52.510;13.456;2023-04-24T21:55:55;3.15;;;1.88;;
21663;SDS011;10993;52.510;13.456;2023-04-24T22:00:57;4.40;;;2.40;;
21663;SDS011;10993;52.510;13.456;2023-04-24T22:05:58;3.65;;;2.15;;
21663;SDS011;10993;52.510;13.456;2023-04-24T22:10:58;5.57;;;2.75;;
21663;SDS011;10993;52.510;13.456;2023-04-24T22:16:01;3.05;;;2.05;;
21663;SDS011;10993;52.510;13.456;2023-04-24T22:21:02;5.82;;;2.67;;
21663;SDS011;10993;52.510;13.456;2023-04-24T22:26:03;7.38;;;2.60;;
21663;SDS011;10993;52.510;13.456;2023-04-24T22:31:04;4.93;;;2.10;;
21663;SDS011;10993;52.510;13.456;2023-04-24T22:36:05;3.65;;;2.20;;
21663;SDS011;10993;52.510;13.456;2023-04-24T22:41:06;4.30;;;2.20;;
21663;SDS011;10993;52.510;13.456;2023-04-24T22:46:08;4.43;;;2.17;;
21663;SDS011;10993;52.510;13.456;2023-04-24T22:51:09;6.97;;;2.92;;
21663;SDS011;10993;52.510;13.456;2023-04-24T22:56:09;3.13;;;1.98;;
21663;SDS011;10993;52.510;13.456;2023-04-24T23:01:12;6.28;;;2.50;;
21663;SDS011;10993;52.510;13.456;2023-04-24T23:06:12;4.20;;;2.33;;
21663;SDS011;10993;52.510;13.456;2023-04-24T23:11:13;4.72;;;2.30;;
21663;SDS011;10993;52.510;13.456;2023-04-24T23:16:14;3.13;;;1.90;;
21663;SDS011;10993;52.510;13.456;2023-04-24T23:21:15;4.68;;;2.15;;
21663;SDS011;10993;52.510;13.456;2023-04-24T23:26:16;4.43;;;2.10;;
21663;SDS011;10993;52.510;13.456;2023-04-24T23:31:18;5.43;;;2.55;;
21663;SDS011;10993;52.510;13.456;2023-04-24T23:36:19;3.83;;;1.80;;
21663;SDS011;10993;52.510;13.456;2023-04-24T23:41:19;3.83;;;2.00;;
21663;SDS011;10993;52.510;13.456;2023-04-24T23:46:21;4.15;;;2.05;;
21663;SDS011;10993;52.510;13.456;2023-04-24T23:51:21;3.38;;;1.98;;
21663;SDS011;10993;52.510;13.456;2023-04-24T23:56:22;2.45;;;1.40;;
